METAR Data
IDs: Format: Raw Decoded Include TAF

Data at: 1350 UTC 07 Jul 2020

KCHA 071253Z 00000KT 10SM R02/1200VP6000FT FEW020 SCT050 SCT180 BKN250 27/22 A3002 RMK AO2 SLP156 T02670217
KCHA 071153Z 00000KT 10SM SCT035 SCT050 BKN180 26/22 A3001 RMK AO2 SLP153 VIRGA NW MDT CU NW T02560217 10256 20239 51004
KCHA 071053Z 00000KT 10SM SCT035 SCT100 BKN180 BKN250 24/22 A3001 RMK AO2 SLP152 VIRGA NW T02440217
KCHA 070953Z 00000KT 10SM FEW012 SCT037 BKN100 24/22 A3001 RMK AO2 SLP152 T02440217
KCHA 070853Z 31003KT 10SM BKN045 BKN100 24/22 A3000 RMK AO2 SLP149 T02390217 55006
KCHA 070753Z 00000KT 10SM OVC037 24/22 A2999 RMK AO2 SLP147 T02440217
KCHA 070653Z 12003KT 10SM CLR 24/22 A3000 RMK AO2 SLP148 T02440217
KCHA 070553Z 00000KT 10SM R02/1000VP6000FT SCT042 25/21 A3002 RMK AO2 SLP155 T02500211 10294 20250 50002
KCHA 070453Z 08004KT 10SM SCT045 BKN060 25/21 A3004 RMK AO2 SLP161 T02500211 403280228
KCHA 070353Z 13005KT 9SM FEW040 BKN060 OVC085 25/22 A3003 RMK AO2 SLP159 LAST T02500217
KCHA 070253Z 18006KT 10SM FEW070 BKN090 BKN250 27/21 A3001 RMK AO2 SLP154 T02670206 51014
KCHA 070153Z 17006KT 10SM BKN070 BKN250 28/21 A3000 RMK AO2 SLP150 T02780206
KCHA 070053Z 16007KT 10SM FEW041 BKN065 BKN250 28/21 A2999 RMK AO2 SLP145 T02830211
KCHA 062353Z 16006KT 10SM BKN045 BKN060 BKN250 29/22 A2997 RMK AO2 SLP139 T02940217 10328 20294 55000
KCHA 062253Z 07004KT 10SM BKN060 BKN250 31/20 A2996 RMK AO2 SLP136 T03060200
KCHA 062153Z 36005KT 10SM SCT045 BKN250 31/21 A2996 RMK AO2 SLP137 T03110206
KCHA 062053Z 36006KT 10SM SCT045 SCT200 BKN250 31/21 A2997 RMK AO2 SLP139 T03110206 56017
KCHA 061953Z 02007KT 10SM SCT046 SCT200 BKN250 33/20 A2998 RMK AO2 SLP144 T03280200
KCHA 061853Z 31004KT 10SM SCT044 SCT070 BKN150 BKN250 31/20 A3000 RMK AO2 SLP151 T03110200
KCHA 061753Z 23003KT 10SM SCT044 SCT070 BKN150 BKN250 30/21 A3002 RMK AO2 SLP157 T03000206 10306 20244 58010
KCHA 061653Z VRB03KT 10SM SCT035 BKN055 BKN075 BKN150 30/21 A3005 RMK AO2 SLP165 T03000211
KCHA 061553Z 00000KT 10SM SCT032 SCT044 BKN065 BKN150 29/22 A3005 RMK AO2 SLP168 T02940217
KCHA 061453Z 00000KT 10SM SCT025 SCT070 BKN200 28/22 A3005 RMK AO2 SLP168 T02830217 51009
KCHA 061353Z 00000KT 10SM SCT022 SCT070 SCT200 BKN250 27/22 A3005 RMK AO2 SLP169 T02720217
KCHA 061253Z 01004KT 10SM SCT070 SCT200 BKN250 26/22 A3004 RMK AO2 SLP164 T02560222
KCHA 061153Z 00000KT 10SM SCT070 SCT200 SCT250 24/22 A3003 RMK AO2 SLP160 T02440217 10250 20228 51018
KCHA 061053Z 00000KT 8SM SCT070 SCT200 23/21 A3001 RMK AO2 SLP153 T02280211
KCHA 060953Z 03003KT 6SM BR SCT065 SCT200 23/21 A2999 RMK AO2 SLP146 T02330211
KCHA 060853Z 03003KT 10SM CLR 24/21 A2997 RMK AO2 SLP141 T02390211 55000
KCHA 060753Z 10003KT 10SM SCT060 24/22 A2997 RMK AO2 SLP138 T02390222
KCHA 060653Z 00000KT 10SM CLR 24/22 A2996 RMK AO2 SLP137 T02390217
KCHA 060553Z 02003KT 10SM CLR 25/21 A2997 RMK AO2 SLP141 T02500211 10272 20244 58003
KCHA 060453Z 04003KT 10SM FEW065 26/22 A2998 RMK AO2 SLP143 T02560217 403440233
KCHA 060353Z 00000KT 10SM FEW200 SCT250 26/21 A2998 RMK AO2 SLP144 LAST T02560211
KCHA 060253Z 01004KT 10SM FEW150 SCT250 26/20 A2998 RMK AO2 SLP144 T02560200 53017
KCHA 060153Z 05006KT 10SM FEW060 FEW090 SCT120 BKN250 26/20 A2997 RMK AO2 SLP137 T02610200